Stafford, Kansas
Current Conditions -  °F | °C
As of 5:35 AM on Friday 24 Oct 2014 (Local Time) from KPTT Reporting Station
Haze Haze  
Wind Chill: 55°   Ceiling: 700
Heat Index: 55°   Visibility: 1.7mi
Dew Point: 54°   Wind: 7mph
Humidity: 94%   Direction: 190°S
Pressure: 30.05"   Gusts: NA
Location:  37.96°N, 98.6°W
Report Text: KPTT 241035Z AUTO 19006KT 1 3/4SM BR VV007 13/12 A3005 RMK AO2
Loading
Personal Weather Stations






























Interactive Weather Map
Tropical Storm Tracking
New forecast layout! Learn more

10-Day Weather Forecast

Advertisements
Track Severe Weather on mobile